Historical Weather Data

Soule Park Golf Course
1033 East Ojai Ave
Ojai, CA 93023
Date ET
(Inches)
Rain
(Inches)
Temp °F
Humidity
Avg
Wind MPH
Avg
Solar Wm2
Avg
High Ave Low
1/1/16 0.05 0.00 65.1 44.2 26.4 45 0.0 100
1/2/16 0.05 0.00 67.5 46.4 32.6 53 0.7 93
1/3/16 0.06 0.00 65.2 48.9 33.0 59 2.8 89
1/4/16 0.06 0.00 67.5 56.6 48.3 58 2.0 78
1/5/16 0.02 1.62 57.6 50.2 39.7 91 2.5 41
1/6/16 0.01 1.66 50.2 43.9 36.9 98 2.0 22
1/7/16 0.05 0.38 58.0 47.0 37.9 84 2.6 105
1/8/16 0.05 0.00 61.8 45.6 33.0 77 2.4 111
1/9/16 0.02 0.01 56.5 46.7 37.0 88 1.3 49
1/10/16 0.03 0.00 57.5 50.4 45.1 92 1.5 52
1/11/16 0.04 0.00 63.2 49.5 38.1 81 1.0 79
1/12/16 0.06 0.00 70.1 47.3 31.3 67 2.0 122
1/13/16 0.05 0.00 66.9 49.5 35.4 77 1.9 98
1/14/16 0.04 0.00 64.3 48.3 34.4 87 1.9 100
1/15/16 0.05 0.00 66.2 49.9 37.4 89 2.1 115
1/16/16 0.05 0.00 68.2 53.5 43.6 88 2.1 94
1/17/16 0.04 0.00 67.8 51.5 39.8 84 1.2 92
1/18/16 0.03 0.00 64.7 52.9 42.6 92 2.0 59
1/19/16 0.02 0.35 58.9 52.4 45.0 97 1.2 39
1/20/16 0.06 0.00 67.6 54.8 45.0 91 1.8 113
1/21/16 0.07 0.00 75.4 54.1 41.4 73 2.1 114
1/22/16 0.05 0.00 73.0 52.6 39.6 74 1.4 103
1/23/16 0.06 0.00 67.4 53.6 41.6 75 2.5 106
1/24/16 0.07 0.00 66.6 50.7 36.6 66 1.8 139
1/25/16 0.09 0.00 70.9 51.9 37.8 63 2.6 146
1/26/16 0.07 0.00 74.4 52.4 35.1 59 0.9 152
1/27/16 0.05 0.00 74.2 51.6 37.7 56 1.6 92
1/28/16 0.08 0.00 75.1 54.5 35.7 52 1.4 142
1/29/16 0.09 0.00 85.3 61.5 43.8 55 1.4 141
1/30/16 0.05 0.00 66.6 53.6 44.4 88 2.2 98
1/31/16 0.05 1.41 58.3 50.8 45.9 75 4.1 72
2/1/16 0.10 0.01 59.2 47.5 33.4 44 4.6 165
2/2/16 0.08 0.00 62.6 44.7 28.5 62 2.6 158
2/3/16 0.07 0.00 64.8 46.3 31.3 67 0.8 169
2/4/16 0.08 0.00 70.4 48.8 31.7 67 0.8 173
2/5/16 0.11 0.00 77.3 53.3 35.5 55 2.2 182
2/6/16 0.11 0.00 78.9 55.5 36.3 51 2.5 185
2/7/16 0.13 0.00 87.4 60.5 38.8 46 2.5 189
2/8/16 0.16 0.02 86.1 63.5 45.8 40 3.7 193
2/9/16 0.13 0.00 89.9 63.2 43.1 43 2.5 195
2/10/16 0.14 0.00 90.0 62.5 42.2 44 2.5 201
2/11/16 0.14 0.00 87.5 62.5 43.1 48 2.3 201
2/12/16 0.14 0.00 86.8 62.7 44.1 50 2.3 201
2/13/16 0.13 0.00 82.4 61.5 43.4 52 2.6 202
2/14/16 0.15 0.00 88.3 65.2 44.2 35 2.9 203
2/15/16 0.15 0.00 90.0 66.9 47.7 45 2.6 204
2/16/16 0.15 0.00 89.4 64.9 45.5 47 2.5 209
2/17/16 0.04 0.15 68.3 54.6 44.3 77 2.0 56
2/18/16 0.11 0.46 66.4 55.5 45.9 84 2.3 205
2/19/16 0.10 0.00 69.3 53.5 40.8 82 2.2 206
2/20/16 0.11 0.00 74.5 55.6 40.5 74 0.9 209
2/21/16 0.11 0.00 80.4 57.5 37.6 62 0.4 215
2/22/16 0.11 0.00 84.5 60.8 39.8 41 0.0 201
2/23/16 0.11 0.00 83.8 60.2 41.6 48 0.1 196
2/24/16 0.12 0.00 82.4 59.5 41.4 50 0.0 217
2/25/16 0.12 0.00 82.1 60.1 41.0 52 0.1 218
2/26/16 0.12 0.00 82.1 60.9 42.3 54 0.0 202
2/27/16 0.14 0.00 81.1 61.1 42.5 61 2.0 212
2/28/16 0.14 0.00 85.3 62.7 43.5 55 2.2 207
2/29/16 0.15 0.00 86.1 63.5 44.0 51 2.4 223
3/1/16 0.14 0.00 80.7 61.3 44.7 59 2.2 219
3/2/16 0.13 0.00 77.0 58.8 41.7 70 1.6 212
3/3/16 0.10 0.00 72.1 56.4 42.3 77 1.9 168
3/4/16 0.09 0.00 71.7 55.1 40.9 81 2.1 157
3/5/16 0.03 0.30 64.8 56.2 50.0 95 1.7 52
3/6/16 0.12 1.25 66.8 55.1 42.2 81 3.6 223
3/7/16 0.08 0.48 59.0 48.9 41.6 83 3.3 171
3/8/16 0.14 0.00 69.8 54.1 38.4 69 2.8 241
3/9/16 0.13 0.00 77.9 58.4 40.4 69 0.8 229
3/10/16 0.13 0.00 78.8 60.5 43.4 73 1.0 219
3/11/16 0.03 0.46 58.2 49.5 40.4 92 2.8 74
3/12/16 0.12 0.00 65.5 50.8 36.6 78 2.4 239
3/13/16 0.07 0.00 64.0 52.4 39.2 88 2.7 139
3/14/16 0.12 0.00 72.8 57.6 45.0 80 2.1 213
3/15/16 0.15 0.00 81.3 59.9 39.7 56 1.3 246
3/16/16 0.17 0.00 85.7 63.8 43.4 53 2.0 250
3/17/16 0.16 0.00 82.2 63.6 47.5 60 1.7 248
3/18/16 0.14 0.00 74.6 58.2 43.4 81 2.2 251
3/19/16 0.11 0.00 74.3 57.6 47.7 88 2.1 207
3/20/16 0.13 0.00 73.8 57.9 43.5 85 2.4 242
3/21/16 0.10 0.00 69.4 56.8 46.1 85 2.5 186
3/22/16 0.17 0.00 72.6 57.2 40.1 49 3.3 258
3/23/16 0.18 0.00 74.5 60.2 44.6 40 3.5 266
3/24/16 0.18 0.00 81.9 62.3 40.8 48 2.6 263
3/25/16 0.20 0.00 83.9 65.9 43.1 39 3.3 270
3/26/16 0.17 0.00 79.1 62.5 43.7 55 2.9 266
3/27/16 0.14 0.00 74.2 58.7 43.7 76 2.5 248
3/28/16 0.11 0.01 65.4 55.1 41.9 72 3.7 186
3/29/16 0.11 0.06 63.5 47.8 35.7 74 3.0 197
3/30/16 0.12 0.00 63.4 48.9 34.6 80 2.6 224
3/31/16 0.15 0.00 72.3 55.1 36.0 67 1.0 269
4/1/16 0.16 0.00 77.0 58.4 40.4 72 1.9 273
4/2/16 0.18 0.00 81.1 61.8 43.7 63 2.3 274
4/3/16 0.18 0.00 81.8 62.1 42.5 54 2.3 263
4/4/16 0.19 0.00 82.6 64.0 45.2 54 2.2 281
4/5/16 0.20 0.00 88.5 67.7 46.2 49 2.4 288
4/6/16 0.20 0.00 93.0 67.4 48.0 57 3.3 244
4/7/16 0.09 0.00 72.9 60.6 51.7 76 1.9 124
4/8/16 0.03 0.05 60.2 57.2 55.0 95 1.4 49
4/9/16 0.06 0.26 64.4 56.7 49.9 93 1.6 101
4/10/16 0.11 0.00 70.3 57.6 46.4 83 2.1 183
4/11/16 0.14 0.00 73.2 60.2 50.9 81 2.5 232
4/12/16 0.17 0.00 74.6 60.4 46.3 78 2.9 290
4/13/16 0.15 0.00 71.9 58.6 45.9 83 2.8 281
4/14/16 0.20 0.00 80.9 62.9 46.2 56 3.6 295
4/15/16 0.20 0.00 77.6 61.9 43.7 39 3.3 296
4/16/16 0.19 0.00 81.2 63.6 43.5 41 1.4 311
4/17/16 0.24 0.00 88.5 67.2 45.2 39 3.4 313
4/18/16 0.23 0.00 88.5 68.3 45.8 41 2.4 312
4/19/16 0.22 0.00 88.6 68.0 50.0 41 2.5 297
4/20/16 0.23 0.00 84.7 64.6 44.2 38 2.9 319
4/21/16 0.21 0.00 83.4 62.1 42.9 56 2.9 315
4/22/16 0.18 0.00 74.2 59.6 44.6 73 3.5 325
4/23/16 0.21 0.00 76.9 60.6 41.1 54 3.1 323
4/24/16 0.17 0.00 75.6 60.4 43.1 55 2.6 258
4/25/16 0.19 0.00 69.5 56.2 40.6 54 4.3 300
4/26/16 0.19 0.00 72.4 56.8 39.3 52 2.9 306
4/27/16 0.20 0.00 75.6 59.2 44.3 62 3.6 322
4/28/16 0.21 0.00 77.8 60.2 42.1 55 3.6 331
4/29/16 0.17 0.00 68.7 56.8 44.6 78 3.0 315
4/30/16 0.19 0.00 72.8 58.6 44.1 72 2.8 324
5/1/16 0.19 0.00 75.3 59.4 43.1 71 2.5 323
5/2/16 0.20 0.00 80.8 62.7 44.9 69 2.7 321
5/3/16 0.19 0.00 87.0 66.1 47.6 62 2.6 278
5/4/16 0.12 0.00 72.4 58.5 48.9 83 3.0 221
5/5/16 0.06 0.00 64.4 58.2 52.8 77 2.1 90
5/6/16 0.07 0.18 67.3 56.2 50.6 88 1.7 124
5/7/16 0.07 0.00 64.8 57.4 50.1 80 1.5 98
5/8/16 0.10 0.00 67.7 57.5 44.8 82 2.2 168
5/9/16 0.10 0.00 71.1 60.1 55.0 81 2.5 170
5/10/16 0.13 0.00 71.5 59.4 51.4 83 2.6 233
5/11/16 0.16 0.00 77.2 60.6 49.0 82 2.6 272
5/12/16 0.22 0.00 86.1 65.9 48.1 72 2.4 333
5/13/16 0.19 0.00 85.9 63.2 50.4 79 2.8 302
5/14/16 0.14 0.00 72.0 59.2 49.0 84 2.7 261
5/15/16 0.14 0.00 73.8 61.9 51.0 77 2.4 235
5/16/16 0.19 0.00 74.7 60.7 46.1 77 2.7 325
5/17/16 0.17 0.00 76.4 60.9 46.7 80 2.8 285
5/18/16 0.21 0.00 79.7 63.0 48.0 78 2.7 329
5/19/16 0.11 0.00 71.7 59.7 51.8 86 2.8 196
5/20/16 0.13 0.00 69.8 59.0 45.8 72 2.8 226
5/21/16 0.14 0.00 69.2 55.7 41.1 70 2.7 243
5/22/16 0.20 0.00 73.0 58.4 40.7 65 3.0 337
5/23/16 0.17 0.00 71.2 58.4 43.9 70 3.0 290
5/24/16 0.13 0.00 72.2 59.3 49.1 74 2.8 210
5/25/16 0.15 0.00 72.3 60.1 47.7 73 2.5 256
5/26/16 0.20 0.00 75.0 61.1 45.4 74 3.1 332
5/27/16 0.22 0.00 79.8 63.4 45.7 71 2.8 340
5/28/16 0.18 0.00 76.7 61.7 48.9 78 3.1 311
5/29/16 0.10 0.00 71.7 60.6 54.8 83 2.9 171
5/30/16 0.19 0.00 75.1 62.0 50.6 79 2.9 311
5/31/16 0.20 0.00 80.0 62.8 48.0 79 2.9 332
6/1/16 0.20 0.00 79.6 64.7 55.2 79 3.0 321
6/2/16 0.24 0.00 91.3 70.8 54.4 68 2.7 335
6/3/16 0.26 0.00 100.7 75.3 50.5 55 2.4 342
6/4/16 0.23 0.00 99.9 73.6 52.6 54 0.3 348
6/5/16 0.19 0.00 86.5 66.3 48.4 69 2.7 286
6/6/16 0.14 0.00 79.0 62.5 52.0 79 3.0 222
6/7/16 0.14 0.00 79.0 62.6 49.9 80 2.7 230
6/8/16 0.16 0.00 84.3 66.6 53.2 73 2.6 240
6/9/16 0.17 0.00 83.7 66.6 53.0 72 2.6 239
6/10/16 0.13 0.00 80.9 65.2 51.6 76 2.6 197
6/11/16 0.05 0.00 67.7 62.2 56.3 83 1.7 58
6/12/16 0.06 0.00 70.4 62.4 53.0 78 2.0 68
6/13/16 0.16 0.00 76.5 61.8 47.7 77 3.1 256
6/14/16 0.16 0.01 73.9 60.5 47.9 77 2.9 302
6/15/16 0.13 0.00 71.6 60.0 47.5 74 2.8 216
6/16/16 0.24 0.00 78.9 64.2 46.0 60 3.2 367
6/17/16 0.27 0.00 88.9 70.4 50.5 50 3.1 365
6/18/16 0.29 0.00 94.5 75.1 53.2 44 3.2 374
6/19/16 0.32 0.00 104.0 82.1 56.4 33 3.2 374
6/20/16 0.33 0.00 110.0 88.9 62.8 25 3.2 377
6/21/16 0.28 0.00 96.0 78.3 63.5 50 3.2 362
6/22/16 0.27 0.00 93.1 74.4 58.1 59 3.0 363
6/23/16 0.26 0.00 87.5 70.3 52.2 65 2.8 373
6/24/16 0.26 0.00 87.4 69.8 53.4 65 3.0 376
6/25/16 0.25 0.00 91.8 71.0 51.5 63 2.8 354
6/26/16 0.28 0.00 103.2 76.1 53.2 57 2.8 363
6/27/16 0.28 0.00 100.0 78.4 56.4 56 2.8 354
6/28/16 0.26 0.00 97.9 79.0 60.6 55 2.9 333
6/29/16 0.27 0.00 96.4 77.2 60.9 58 2.7 350
6/30/16 0.26 0.00 92.7 73.8 56.8 61 3.0 359
7/1/16 0.24 0.00 85.9 68.6 54.2 73 3.1 351
7/2/16 0.23 0.00 84.4 69.0 57.2 72 3.2 341
7/3/16 0.23 0.00 82.8 66.9 54.4 72 3.0 353
7/4/16 0.23 0.00 82.2 67.6 56.8 70 3.4 347
7/5/16 0.19 0.00 81.6 64.7 53.1 76 3.0 306
7/6/16 0.21 0.00 80.3 65.4 53.7 75 3.2 336
7/7/16 0.23 0.00 83.2 67.4 51.9 70 3.0 350
7/8/16 0.24 0.00 86.7 70.1 53.3 66 3.0 354
7/9/16 0.24 0.00 90.3 72.6 55.9 61 2.9 334
7/10/16 0.25 0.00 88.3 72.3 55.9 61 3.0 355
7/11/16 0.24 0.00 83.9 69.4 51.9 65 3.4 354
7/12/16 0.23 0.00 83.3 68.0 53.2 71 3.0 348
7/13/16 0.25 0.00 92.2 72.2 54.2 62 2.9 351
7/14/16 0.25 0.00 90.4 72.5 53.5 59 2.7 351
7/15/16 0.25 0.00 90.4 71.3 54.7 61 2.9 348
7/16/16 0.24 0.00 89.3 68.7 54.2 68 2.9 344
7/17/16 0.24 0.00 86.7 68.2 50.2 68 3.0 357
7/18/16 0.25 0.00 91.9 70.7 54.5 65 2.9 343
7/19/16 0.28 0.00 96.4 74.7 52.4 51 2.9 361
7/20/16 0.29 0.00 100.4 77.7 54.7 42 3.1 360
7/21/16 0.29 0.00 102.0 80.2 57.3 41 3.1 356
7/22/16 0.30 0.00 108.2 85.0 60.0 33 3.1 355
7/23/16 0.31 0.00 106.3 84.1 62.4 25 3.2 360
7/24/16 0.24 0.00 97.8 77.6 58.0 50 2.7 311
7/25/16 0.26 0.00 97.5 77.2 59.5 59 2.9 339
7/26/16 0.27 0.00 98.4 80.1 60.5 42 2.8 337
7/27/16 0.27 0.00 98.6 80.5 61.4 41 2.9 334
7/28/16 0.25 0.00 95.5 78.4 61.9 50 2.9 316
7/29/16 0.26 0.00 99.2 80.3 61.6 51 2.7 318
7/30/16 0.23 0.00 96.3 77.8 62.1 59 2.7 296
7/31/16 0.23 0.00 92.2 74.8 62.0 67 3.2 310
8/1/16 0.24 0.00 90.8 73.5 60.3 67 3.2 321
8/2/16 0.23 0.00 91.0 71.9 56.1 67 2.9 323
8/3/16 0.23 0.00 89.7 71.9 56.0 66 3.0 319
8/4/16 0.22 0.00 90.9 71.5 57.8 67 2.9 316
8/5/16 0.23 0.00 87.7 70.0 54.8 67 3.0 328
8/6/16 0.22 0.00 89.5 68.5 54.7 72 2.7 314
8/7/16 0.23 0.00 92.3 69.5 51.6 68 2.5 330
8/8/16 0.23 0.00 86.4 68.3 51.4 71 2.9 334
8/9/16 0.21 0.00 84.1 68.8 57.3 74 3.0 310
8/10/16 0.22 0.00 87.9 68.4 53.1 71 2.8 319
8/11/16 0.23 0.00 88.1 68.9 54.2 71 2.8 329
8/12/16 0.23 0.00 95.1 72.4 54.7 62 2.6 314
8/13/16 0.25 0.00 99.0 76.8 57.5 55 2.6 320
8/14/16 0.26 0.00 99.5 78.7 59.8 52 2.9 321
8/15/16 0.28 0.00 101.9 78.1 55.0 45 2.9 336
8/16/16 0.26 0.00 100.5 75.8 53.7 42 2.6 331
8/17/16 0.26 0.00 98.2 74.4 50.5 38 2.6 331
8/18/16 0.24 0.00 95.5 69.6 46.5 46 2.8 327
8/19/16 0.22 0.00 92.7 69.9 48.9 57 2.6 306
8/20/16 0.22 0.00 92.5 70.9 52.6 56 2.6 297
8/21/16 0.22 0.00 93.7 72.9 54.4 56 2.6 293
8/22/16 0.22 0.00 91.0 72.3 55.2 54 2.6 287
8/23/16 0.20 0.00 89.7 71.9 55.4 57 2.7 277
8/24/16 0.20 0.00 90.8 71.7 55.2 59 2.7 275
8/25/16 0.19 0.00 85.5 68.2 52.5 68 2.6 279
8/26/16 0.17 0.00 80.5 66.2 56.6 77 3.0 263
8/27/16 0.15 0.00 81.4 64.8 54.1 78 2.6 247
8/28/16 0.21 0.00 95.3 71.9 52.8 62 2.4 284
8/29/16 0.22 0.00 101.1 76.0 54.2 55 2.6 287
8/30/16 0.23 0.00 103.1 78.8 57.7 48 2.6 285
8/31/16 0.22 0.00 97.8 76.0 58.9 56 2.7 285
9/1/16 0.22 0.00 93.1 72.6 55.6 59 2.8 288
9/2/16 0.18 0.00 86.4 66.8 53.2 74 2.6 279
9/3/16 0.16 0.00 78.3 64.5 54.3 77 3.0 261
9/4/16 0.15 0.00 76.5 63.8 53.1 71 2.9 238
9/5/16 0.17 0.00 78.3 63.1 48.8 71 2.8 272
9/6/16 0.18 0.00 87.0 67.2 49.4 68 2.5 273
9/7/16 0.18 0.00 86.3 67.0 50.7 70 2.7 271
9/8/16 0.17 0.00 82.6 69.0 59.1 72 2.8 261
9/9/16 0.17 0.00 88.8 67.7 54.1 73 2.4 250
9/10/16 0.20 0.00 94.2 71.2 51.8 56 2.5 269
9/11/16 0.19 0.00 89.4 68.2 50.5 63 2.7 269
9/12/16 0.14 0.00 75.2 62.7 54.0 79 3.2 238
9/13/16 0.15 0.00 74.5 63.7 52.6 68 3.3 244
9/14/16 0.17 0.00 78.8 61.2 45.3 67 2.8 262
9/15/16 0.18 0.00 82.9 64.7 46.4 63 2.7 261
9/16/16 0.18 0.00 85.4 65.9 48.1 66 2.6 258
9/17/16 0.19 0.00 93.0 70.7 49.5 59 2.5 256
9/18/16 0.22 0.00 103.5 78.8 54.9 33 2.8 263
9/19/16 0.14 0.00 98.5 74.9 56.5 41 2.4 166
9/20/16 0.17 0.00 92.6 74.5 61.2 55 2.8 202
9/21/16 0.17 0.00 88.3 73.0 59.7 62 2.8 231
9/22/16 0.18 0.00 87.5 67.6 51.6 48 3.2 251
9/23/16 0.20 0.00 88.3 70.7 52.6 25 3.5 253
9/24/16 0.21 0.00 94.4 72.4 50.1 27 3.0 251
9/25/16 0.21 0.00 101.5 76.8 55.0 28 3.1 249
9/26/16 0.22 0.00 104.0 80.6 60.2 23 3.1 247
9/27/16 0.19 0.00 100.9 77.0 60.7 33 2.9 214
9/28/16 0.16 0.00 92.8 74.8 61.6 50 2.5 193
9/29/16 0.18 0.00 94.6 75.6 59.0 51 2.7 227
9/30/16 0.19 0.00 92.2 73.1 56.6 46 2.8 232
10/1/16 0.17 0.00 87.3 68.4 52.2 53 2.5 238
10/2/16 0.15 0.00 78.4 62.1 45.8 61 2.9 237
10/3/16 0.16 0.00 78.8 62.5 46.3 51 2.9 235
10/4/16 0.15 0.00 79.6 62.1 44.6 56 2.6 234
10/5/16 0.14 0.00 79.1 60.3 43.4 65 2.6 227
10/6/16 0.17 0.00 89.2 65.7 43.8 38 2.6 233
10/7/16 0.17 0.00 94.4 69.2 49.1 29 2.8 207
10/8/16 0.18 0.00 92.3 69.5 49.6 30 2.6 228
10/9/16 0.17 0.00 93.5 69.3 48.9 35 2.6 223
10/10/16 0.16 0.00 88.6 67.0 48.4 48 2.5 221
10/11/16 0.12 0.00 77.7 60.1 48.2 76 2.6 209
10/12/16 0.10 0.00 73.7 57.8 47.0 81 2.5 183
10/13/16 0.12 0.00 80.0 60.0 44.4 75 2.2 200
10/14/16 0.12 0.00 78.5 60.3 46.6 76 2.2 208
10/15/16 0.12 0.00 78.4 62.9 48.9 79 2.7 202
10/16/16 0.11 0.03 76.7 65.6 57.7 78 3.1 182
10/17/16 0.13 0.08 78.7 65.4 54.1 77 1.8 213
10/18/16 0.14 0.00 81.5 63.3 46.0 54 2.8 212
10/19/16 0.17 0.00 92.8 67.7 48.1 37 2.8 212
10/20/16 0.17 0.00 97.4 70.8 48.4 30 2.6 216
10/21/16 0.17 0.00 96.0 70.0 49.4 29 2.5 213
10/22/16 0.14 0.00 88.4 64.8 47.8 41 2.4 200
10/23/16 0.07 0.00 80.9 60.6 47.0 57 2.5 75
10/24/16 0.12 0.00 78.3 62.7 52.2 69 2.6 185
10/25/16 0.12 0.00 80.6 60.4 45.5 71 2.4 193
10/26/16 0.13 0.00 84.8 63.4 45.4 58 2.3 187
10/27/16 0.07 0.00 81.3 66.3 52.8 52 1.9 82
10/28/16 0.08 0.30 75.0 63.7 54.4 84 2.4 129
10/29/16 0.08 0.00 82.4 64.2 49.5 75 1.4 134
10/30/16 0.02 0.20 67.0 61.3 56.6 92 1.3 44
10/31/16 0.11 0.00 71.5 58.3 46.5 83 1.5 196
11/1/16 0.09 0.00 73.1 57.0 47.2 82 1.7 163
11/2/16 0.13 0.00 82.0 60.4 43.1 60 2.5 194
11/3/16 0.14 0.00 90.5 64.9 44.9 46 2.9 188
11/4/16 0.14 0.00 88.4 67.2 50.3 46 2.8 180
11/5/16 0.12 0.00 86.4 64.0 47.3 53 2.5 178
11/6/16 0.09 0.00 77.9 59.7 44.3 69 2.4 157
11/7/16 0.10 0.00 87.6 63.0 46.7 61 2.1 156
11/8/16 0.12 0.00 94.3 68.8 50.8 46 2.5 163
11/9/16 0.14 0.00 93.0 70.3 53.4 42 3.1 160
11/10/16 0.13 0.00 90.0 67.6 51.7 41 2.8 160
11/11/16 0.12 0.00 88.4 65.8 47.3 40 2.3 157
11/12/16 0.09 0.00 84.5 65.1 51.9 41 2.3 119
11/13/16 0.11 0.00 89.1 65.3 47.8 43 2.4 150
11/14/16 0.11 0.00 90.7 65.4 48.0 44 2.3 148
11/15/16 0.09 0.00 83.9 60.6 45.0 55 2.3 132
11/16/16 0.08 0.00 74.7 55.0 42.5 59 2.8 119
11/17/16 0.09 0.00 72.1 52.1 35.6 44 2.6 142
11/18/16 0.11 0.00 76.7 54.7 38.0 33 3.0 140
11/19/16 0.09 0.00 76.9 52.6 34.8 46 2.5 136
11/20/16 0.05 0.24 70.6 52.4 37.7 67 2.3 86
11/21/16 0.07 0.00 69.9 56.0 44.4 78 2.6 138
11/22/16 0.07 0.00 70.8 52.1 37.8 71 2.4 127
11/23/16 0.07 0.00 73.3 52.4 37.3 65 2.4 117
11/24/16 0.09 0.00 81.1 54.7 36.5 49 2.3 127
11/25/16 0.09 0.00 78.8 52.2 34.4 46 2.2 128
11/26/16 0.04 0.31 61.6 44.0 31.1 77 2.2 77
11/27/16 0.06 0.00 65.6 47.4 35.7 79 2.4 97
11/28/16 0.06 0.00 65.9 48.6 34.8 73 2.4 99
11/29/16 0.08 0.00 69.0 51.4 36.2 56 2.7 114
11/30/16 0.08 0.00 66.9 48.0 33.6 59 2.6 110
12/1/16 0.07 0.00 67.0 50.8 38.7 62 2.6 101
12/2/16 0.08 0.00 66.0 48.9 35.6 57 2.7 105
12/3/16 0.08 0.00 72.3 47.3 29.6 47 2.1 106
12/4/16 0.08 0.00 77.5 52.2 35.4 49 2.3 98
12/5/16 0.07 0.00 70.2 49.1 35.0 67 2.4 92
12/6/16 0.04 0.00 62.6 48.5 37.6 82 2.1 66
12/7/16 0.05 0.00 65.5 47.3 35.3 72 2.1 71
12/8/16 0.06 0.00 68.0 52.4 40.1 72 2.3 84
12/9/16 0.06 0.00 68.9 55.9 47.0 85 2.2 84
12/10/16 0.04 0.00 65.8 54.7 45.0 92 1.8 72
12/11/16 0.05 0.00 68.5 58.5 53.1 86 1.7 76
12/12/16 0.04 0.00 66.3 56.0 46.8 86 1.6 79
12/13/16 0.04 0.00 66.0 52.1 43.2 89 1.5 75
12/14/16 0.05 0.00 72.8 53.3 41.3 82 1.5 80
12/15/16 0.03 0.60 62.1 53.8 46.4 85 1.5 34
12/16/16 0.07 1.31 61.6 54.0 46.7 72 2.8 86
12/17/16 0.07 0.00 61.1 45.2 33.9 58 2.5 94
12/18/16 0.07 0.00 66.9 43.5 28.4 62 2.1 95
12/19/16 0.07 0.00 70.6 45.0 28.4 49 2.4 97
12/20/16 0.08 0.00 78.2 49.5 27.9 48 2.3 93
12/21/16 0.05 0.00 66.4 55.0 48.0 55 2.2 42
12/22/16 0.06 0.00 68.7 55.0 42.2 72 2.5 77
12/23/16 0.02 1.45 59.9 47.9 40.0 91 2.2 34
12/24/16 0.06 0.01 55.5 46.2 36.6 66 3.2 81
12/25/16 0.05 0.00 55.8 42.1 29.8 65 2.3 67
12/26/16 0.06 0.00 63.7 46.4 35.2 61 2.3 77
12/27/16 0.07 0.00 73.3 47.4 30.1 62 2.1 94
12/28/16 0.07 0.00 79.9 52.3 34.1 58 2.1 95
12/29/16 0.08 0.00 82.3 56.2 38.7 51 2.3 90
12/30/16 0.03 0.22 62.5 54.8 50.5 86 2.4 43
12/31/16 0.01 0.08 53.5 48.3 37.2 95 1.1 26